Time;durP1;ratioP1;P1;durP2;ratioP2;P2;SDS_P1;SDS_P2;PMS_P1;PMS_P2;Temp;Humidity;BMP_temperature;BMP_pressure;BME280_temperature;BME280_humidity;BME280_pressure;Samples;Min_cycle;Max_cycle;Signal;HPM_P1;HPM_P2
2021/11/12 00:13:44;;;;;;;17.85;9.15;;;;;;;0.69;89.27;101616.19;1749273;80;21003;-42
2021/11/12 00:16:11;;;;;;;24.27;9.83;;;;;;;0.70;89.48;101609.00;1749170;82;21120;-42
2021/11/12 00:18:38;;;;;;;22.02;9.33;;;;;;;0.70;89.97;101605.18;1749226;82;21020;-42
2021/11/12 00:21:06;;;;;;;19.90;8.93;;;;;;;0.69;89.97;101595.38;1749241;82;20964;-42
2021/11/12 00:23:35;;;;;;;16.40;10.10;;;;;;;0.67;90.55;101598.27;1749094;81;20964;-42
2021/11/12 00:26:02;;;;;;;17.73;10.45;;;;;;;0.66;90.55;101593.98;1749190;82;20935;-42
2021/11/12 00:28:35;;;;;;;22.37;10.40;;;;;;;0.68;90.65;101586.41;1721295;82;21276;-42
2021/11/12 00:31:04;;;;;;;23.57;10.58;;;;;;;0.68;90.76;101588.95;1748452;82;21119;-42
2021/11/12 00:38:29;;;;;;;18.30;10.25;;;;;;;0.65;90.95;101588.42;1749304;82;21007;-42
2021/11/12 00:40:59;;;;;;;23.77;11.05;;;;;;;0.65;90.93;101592.23;1749026;82;22252;-42
2021/11/12 00:43:46;;;;;;;19.00;11.57;;;;;;;0.63;90.89;101582.78;1753218;81;20990;-42
2021/11/12 00:47:18;;;;;;;32.63;11.83;;;;;;;0.60;91.00;101579.72;1754991;81;20988;-42
2021/11/12 00:48:57;;;;;;;23.18;11.70;;;;;;;0.55;90.99;101574.42;1723628;81;21014;-42
2021/11/12 00:51:28;;;;;;;26.35;12.73;;;;;;;0.49;91.35;101573.30;1756900;81;21522;-42
2021/11/12 00:56:26;;;;;;;42.13;11.78;;;;;;;0.47;91.69;101572.37;1756794;81;20931;-42
2021/11/12 00:58:55;;;;;;;22.27;11.03;;;;;;;0.43;91.75;101572.25;1757148;81;20936;-42
2021/11/12 01:01:22;;;;;;;22.65;11.00;;;;;;;0.40;92.11;101565.76;1756809;81;21502;-42
2021/11/12 01:03:49;;;;;;;18.95;11.28;;;;;;;0.40;92.10;101567.03;1756944;81;20971;-42
2021/11/12 01:06:16;;;;;;;18.05;10.60;;;;;;;0.40;92.39;101559.80;1756957;81;21868;-42
2021/11/12 01:08:42;;;;;;;17.35;10.75;;;;;;;0.40;92.50;101555.56;1757132;81;20924;-43
2021/11/12 01:11:11;;;;;;;28.70;11.88;;;;;;;0.40;92.61;101558.11;1756820;81;20951;-42
2021/11/12 01:13:37;;;;;;;19.42;10.82;;;;;;;0.42;92.71;101556.50;1756735;81;20971;-42
2021/11/12 01:16:05;;;;;;;23.75;11.08;;;;;;;0.41;92.74;101555.17;1756831;81;20936;-42
2021/11/12 01:18:34;;;;;;;20.75;11.48;;;;;;;0.37;92.82;101546.91;1756837;81;22046;-42
2021/11/12 01:21:01;;;;;;;22.58;11.75;;;;;;;0.36;93.10;101549.88;1756727;81;20881;-42
2021/11/12 01:23:27;;;;;;;22.67;11.55;;;;;;;0.36;93.06;101544.78;1756900;81;22254;-42
2021/11/12 01:25:55;;;;;;;46.20;11.90;;;;;;;0.35;93.30;101545.59;1757004;81;20892;-42
2021/11/12 01:28:22;;;;;;;22.30;12.05;;;;;;;0.35;93.42;101550.69;1756733;81;21007;-42
2021/11/12 01:30:48;;;;;;;18.52;11.03;;;;;;;0.35;93.63;101537.95;1757157;81;21761;-42
2021/11/12 01:33:17;;;;;;;25.48;11.78;;;;;;;0.35;93.74;101544.70;1756705;81;20896;-42
2021/11/12 01:35:43;;;;;;;19.50;11.38;;;;;;;0.35;93.85;101539.23;1757017;81;20936;-42
2021/11/12 01:38:11;;;;;;;29.32;12.23;;;;;;;0.32;93.83;101537.83;1756958;81;21011;-42
2021/11/12 01:40:38;;;;;;;30.72;12.05;;;;;;;0.32;94.15;101538.22;1756677;81;21014;-43
2021/11/12 01:43:17;;;;;;;20.77;11.70;;;;;;;0.32;94.26;101535.28;1742389;81;21250;-42
2021/11/12 01:45:53;;;;;;;22.32;12.98;;;;;;;0.33;94.22;101536.14;1734795;82;20957;-42
2021/11/12 01:50:44;;;;;;;23.55;12.15;;;;;;;0.25;94.36;101532.88;1735053;82;21495;-42
2021/11/12 01:53:13;;;;;;;21.55;12.07;;;;;;;0.23;94.41;101539.59;1735190;81;20929;-42
2021/11/12 02:00:50;;;;;;;25.12;13.13;;;;;;;0.16;95.01;101535.06;1757386;81;20993;-40
2021/11/12 02:03:17;;;;;;;21.35;12.73;;;;;;;0.14;95.19;101535.40;1757486;81;21217;-41
2021/11/12 02:05:43;;;;;;;27.35;13.20;;;;;;;0.14;95.38;101528.61;1738349;81;20983;-40
2021/11/12 02:08:11;;;;;;;23.38;12.93;;;;;;;0.16;95.76;101526.53;1757398;81;20889;-41
2021/11/12 02:10:37;;;;;;;19.32;12.50;;;;;;;0.18;95.86;101529.63;1757466;81;20936;-41
2021/11/12 02:13:15;;;;;;;23.12;12.55;;;;;;;0.17;95.99;101521.52;1757327;81;20940;-41
2021/11/12 02:15:38;;;;;;;32.15;13.30;;;;;;;0.17;95.98;101511.72;1755443;81;21178;-42
2021/11/12 02:18:13;;;;;;;27.30;13.30;;;;;;;0.14;95.91;101509.94;1757319;81;21454;-42
2021/11/12 02:20:46;;;;;;;22.82;13.18;;;;;;;0.09;95.95;101511.01;1756793;81;21496;-42
2021/11/12 02:23:11;;;;;;;26.77;13.75;;;;;;;0.05;96.03;101519.33;1757020;81;22185;-42
2021/11/12 02:25:44;;;;;;;43.92;14.28;;;;;;;0.03;96.12;101522.60;1753786;81;21450;-41
2021/11/12 02:28:16;;;;;;;24.63;12.18;;;;;;;-0.01;96.14;101521.20;1748074;82;21193;-42
2021/11/12 02:30:39;;;;;;;25.40;12.93;;;;;;;-0.04;96.39;101521.47;1695997;82;20971;-42
2021/11/12 02:33:13;;;;;;;23.95;13.40;;;;;;;-0.04;96.71;101518.92;1748951;82;21541;-42
2021/11/12 02:35:44;;;;;;;22.15;12.23;;;;;;;-0.04;96.83;101509.62;1718001;82;21015;-42
2021/11/12 02:38:11;;;;;;;23.50;12.13;;;;;;;-0.05;97.05;101506.61;1746394;82;20976;-42
2021/11/12 02:40:38;;;;;;;21.48;12.07;;;;;;;-0.04;97.33;101508.35;1749010;82;21159;-42
2021/11/12 02:43:05;;;;;;;22.22;12.73;;;;;;;-0.03;97.52;101491.38;1749358;82;21519;-42
2021/11/12 02:45:34;;;;;;;27.37;12.53;;;;;;;-0.01;97.67;101494.47;1748989;81;20963;-42
2021/11/12 02:48:01;;;;;;;23.52;12.07;;;;;;;0.00;97.54;101490.27;1697093;82;21481;-42
2021/11/12 02:50:27;;;;;;;27.98;12.25;;;;;;;0.01;97.69;101484.37;1749099;82;21453;-42
2021/11/12 02:53:01;;;;;;;21.65;11.88;;;;;;;0.02;97.59;101477.58;1748965;81;21145;-42
2021/11/12 02:55:23;;;;;;;23.20;12.65;;;;;;;0.02;97.60;101468.28;1747890;82;20893;-42
2021/11/12 02:57:49;;;;;;;24.05;12.90;;;;;;;0.01;97.73;101467.81;1740232;81;20980;-42
2021/11/12 03:00:21;;;;;;;28.15;12.35;;;;;;;0.02;97.72;101473.77;1735683;82;21024;-42
2021/11/12 03:02:47;;;;;;;20.95;11.85;;;;;;;0.00;97.73;101459.72;1736209;82;21545;-42
2021/11/12 03:05:14;;;;;;;22.37;11.40;;;;;;;-0.02;97.77;101448.18;1735883;82;21835;-42
2021/11/12 03:07:40;;;;;;;24.87;12.28;;;;;;;-0.03;97.88;101445.55;1735532;82;20985;-42
2021/11/12 03:10:08;;;;;;;19.35;11.70;;;;;;;-0.05;97.98;101445.52;1735353;82;21023;-42
2021/11/12 03:12:34;;;;;;;21.15;11.83;;;;;;;-0.05;98.22;101437.88;1735155;82;20973;-42
2021/11/12 03:15:01;;;;;;;19.20;12.07;;;;;;;-0.01;98.30;101437.19;1735172;81;20933;-42
2021/11/12 03:17:27;;;;;;;23.35;11.38;;;;;;;-0.02;98.28;101434.17;1735156;81;21251;-42
2021/11/12 03:19:54;;;;;;;19.82;11.55;;;;;;;0.01;98.45;101435.11;1735285;82;21083;-42
2021/11/12 03:22:23;;;;;;;20.70;12.30;;;;;;;0.04;98.47;101430.13;1735328;82;21519;-42
2021/11/12 03:24:54;;;;;;;23.18;12.15;;;;;;;0.07;98.63;101422.23;1735133;82;21015;-42
2021/11/12 03:27:36;;;;;;;19.60;11.53;;;;;;;0.10;98.74;101418.91;1735024;82;21031;-42
2021/11/12 04:00:27;;;;;;;18.20;10.60;;;;;;;0.13;99.25;101374.50;1749373;82;21497;-42
2021/11/12 04:05:35;;;;;;;18.45;11.70;;;;;;;0.11;99.38;101373.55;1749131;82;20964;-42
2021/11/12 04:17:10;;;;;;;16.42;10.23;;;;;;;0.11;99.34;101362.97;1745012;82;21020;-42
2021/11/12 04:22:03;;;;;;;21.97;10.82;;;;;;;0.01;99.80;101368.52;1749302;82;21071;-42
2021/11/12 05:13:34;;;;;;;23.32;13.03;;;;;;;0.82;100.00;101360.91;1749105;82;20940;-42
2021/11/12 05:46:14;;;;;;;21.07;13.03;;;;;;;1.41;100.00;101374.84;1749215;82;21747;-42
2021/11/12 05:56:14;;;;;;;22.55;13.70;;;;;;;1.49;100.00;101368.73;1749352;80;21028;-42
2021/11/12 05:58:41;;;;;;;20.25;13.78;;;;;;;1.50;100.00;101370.47;1740834;81;21153;-42
2021/11/12 06:01:07;;;;;;;21.70;13.60;;;;;;;1.51;100.00;101365.82;1735100;82;20956;-43
2021/11/12 06:03:34;;;;;;;26.07;13.78;;;;;;;1.53;100.00;101368.02;1735222;82;21084;-42
2021/11/12 06:06:01;;;;;;;23.07;14.00;;;;;;;1.58;100.00;101363.92;1714268;82;21518;-42
2021/11/12 06:08:27;;;;;;;21.40;13.50;;;;;;;1.57;100.00;101359.25;1735264;82;21482;-43
2021/11/12 06:10:53;;;;;;;21.57;12.95;;;;;;;1.59;100.00;101359.28;1735208;82;21479;-43
2021/11/12 06:13:21;;;;;;;24.25;14.05;;;;;;;1.64;100.00;101357.77;1735095;82;21499;-43
2021/11/12 06:15:50;;;;;;;25.45;13.43;;;;;;;1.64;100.00;101361.59;1735239;82;20999;-43
2021/11/12 06:18:16;;;;;;;19.70;13.18;;;;;;;1.65;100.00;101362.05;1735085;82;21032;-43
2021/11/12 06:20:43;;;;;;;25.60;14.60;;;;;;;1.67;100.00;101359.53;1714342;82;21130;-43
2021/11/12 06:23:10;;;;;;;25.43;14.68;;;;;;;1.71;100.00;101360.97;1735110;82;21150;-42
2021/11/12 07:04:55;;;;;;;20.68;12.13;;;;;;;2.69;98.92;101355.39;1870467;76;22700;-43
2021/11/12 07:07:23;;;;;;;31.17;13.95;;;;;;;2.60;98.05;101358.55;1826706;78;21015;-43
2021/11/12 07:09:51;;;;;;;21.70;12.47;;;;;;;2.58;97.53;101352.52;1791238;78;21016;-43
2021/11/12 07:12:18;;;;;;;28.15;13.08;;;;;;;2.56;96.86;101353.74;1826449;78;20990;-45
2021/11/12 07:14:44;;;;;;;20.15;12.47;;;;;;;2.62;96.68;101340.67;1791673;78;20986;-44
2021/11/12 07:17:12;;;;;;;20.45;12.13;;;;;;;2.64;95.95;101340.30;1826622;78;21023;-44
2021/11/12 07:19:40;;;;;;;21.30;13.00;;;;;;;2.61;95.46;101341.50;1826672;78;21576;-43
2021/11/12 07:22:07;;;;;;;18.42;12.53;;;;;;;2.58;95.23;101344.42;1826588;78;21874;-43
2021/11/12 07:24:33;;;;;;;21.25;11.88;;;;;;;2.59;94.99;101349.99;1806019;78;20919;-42
2021/11/12 07:27:00;;;;;;;17.05;11.88;;;;;;;2.61;95.02;101349.17;1826738;78;21001;-43
2021/11/12 07:29:30;;;;;;;20.35;12.73;;;;;;;2.71;94.51;101338.40;1791536;78;21006;-43
2021/11/12 07:31:59;;;;;;;29.87;13.15;;;;;;;2.71;94.51;101338.40;1826706;78;20994;-43
2021/11/12 07:34:27;;;;;;;24.82;12.20;;;;;;;2.75;94.34;101335.09;1826854;78;21083;-43
2021/11/12 07:37:00;;;;;;;30.35;13.75;;;;;;;2.85;94.26;101330.68;1791228;78;20936;-43
2021/11/12 07:42:08;;;;;;;28.05;13.08;;;;;;;3.12;92.96;101323.28;1826432;78;21490;-43
2021/11/12 07:47:14;;;;;;;18.35;12.78;;;;;;;3.22;93.19;101316.72;1826591;78;21092;-44
2021/11/12 07:49:39;;;;;;;26.37;11.33;;;;;;;3.34;92.68;101316.16;1826536;77;20963;-43
2021/11/12 07:52:07;;;;;;;27.13;12.23;;;;;;;3.36;92.15;101319.62;1826345;78;21002;-44
2021/11/12 07:54:34;;;;;;;25.75;12.25;;;;;;;3.43;92.02;101315.53;1817302;78;21518;-44
2021/11/12 07:57:01;;;;;;;17.65;11.80;;;;;;;3.55;91.25;101316.25;1817713;78;20986;-44
2021/11/12 07:59:28;;;;;;;35.68;13.38;;;;;;;3.57;89.93;101305.63;1817309;79;21055;-44
2021/11/12 08:01:56;;;;;;;20.95;12.33;;;;;;;3.57;89.93;101305.63;1817367;78;21429;-44
2021/11/12 08:04:23;;;;;;;27.02;13.10;;;;;;;3.59;89.92;101303.97;1825572;78;21445;-44
2021/11/12 08:06:53;;;;;;;34.70;11.70;;;;;;;3.62;89.56;101298.06;1829916;78;20966;-45
2021/11/12 08:09:21;;;;;;;21.37;12.20;;;;;;;3.69;89.50;101296.09;1829875;78;21441;-44
2021/11/12 08:11:57;;;;;;;21.85;12.03;;;;;;;3.70;88.47;101283.73;1829862;78;21201;-44
2021/11/12 08:19:25;;;;;;;22.20;12.45;;;;;;;3.84;88.45;101290.45;1829131;78;20958;-44
2021/11/12 08:32:11;;;;;;;24.72;12.47;;;;;;;4.10;86.09;101279.92;1829261;78;20919;-43
2021/11/12 08:37:02;;;;;;;19.30;13.18;;;;;;;4.08;85.87;101267.09;1829193;78;21036;-44
2021/11/12 08:42:23;;;;;;;44.60;13.58;;;;;;;4.17;85.68;101271.55;1829197;78;20939;-43
2021/11/12 08:49:53;;;;;;;27.32;12.88;;;;;;;4.40;84.02;101258.31;1829478;78;21033;-44
2021/11/12 08:52:23;;;;;;;30.95;13.40;;;;;;;4.54;84.15;101263.31;1829053;78;20924;-44
2021/11/12 08:54:49;;;;;;;27.37;12.85;;;;;;;4.54;84.15;101263.31;1829288;78;20884;-44
2021/11/12 08:57:16;;;;;;;22.05;13.50;;;;;;;4.71;83.01;101260.21;1801718;78;20963;-44
2021/11/12 08:59:52;;;;;;;26.80;12.95;;;;;;;4.68;83.24;101253.75;1829148;78;20958;-44
2021/11/12 09:02:24;;;;;;;23.42;14.23;;;;;;;4.76;82.79;101247.05;1801462;78;21008;-44
2021/11/12 09:04:51;;;;;;;29.48;14.23;;;;;;;4.86;82.43;101236.09;1820034;78;20975;-44
2021/11/12 09:07:18;;;;;;;21.75;13.45;;;;;;;4.99;82.26;101233.33;1811870;78;21018;-44
2021/11/12 09:09:49;;;;;;;24.47;14.40;;;;;;;5.11;81.65;101236.95;1816681;78;21472;-44
2021/11/12 09:12:15;;;;;;;24.43;14.15;;;;;;;5.20;80.82;101236.25;1816796;78;20948;-44
2021/11/12 09:14:46;;;;;;;31.17;15.98;;;;;;;5.29;80.68;101228.68;1816763;79;21091;-43
2021/11/12 09:17:11;;;;;;;23.85;13.85;;;;;;;5.32;79.56;101225.75;1816712;78;20948;-43
2021/11/12 09:19:46;;;;;;;19.32;12.73;;;;;;;5.27;79.70;101227.36;1816727;79;20948;-43
2021/11/12 09:22:15;;;;;;;20.65;12.98;;;;;;;5.26;79.52;101220.94;1784962;79;20939;-43
2021/11/12 09:24:43;;;;;;;18.98;13.50;;;;;;;5.31;79.71;101219.30;1811929;78;20927;-43
2021/11/12 09:27:11;;;;;;;22.42;14.10;;;;;;;5.35;79.42;101224.92;1816594;79;21107;-45
2021/11/12 09:29:37;;;;;;;26.97;14.13;;;;;;;5.48;79.37;101224.69;1817038;79;20928;-44
2021/11/12 09:32:08;;;;;;;21.80;12.98;;;;;;;5.57;78.89;101227.81;1816831;79;20987;-44
2021/11/12 09:34:37;;;;;;;30.43;13.85;;;;;;;5.73;78.81;101228.89;1786248;79;20951;-43
2021/11/12 09:37:08;;;;;;;34.38;13.20;;;;;;;5.82;78.42;101225.59;1816730;79;21548;-44
2021/11/12 09:39:39;;;;;;;24.70;14.98;;;;;;;5.84;78.18;101218.77;1817031;79;21122;-44
2021/11/12 09:42:07;;;;;;;24.47;14.73;;;;;;;6.02;77.72;101206.60;1816618;78;20928;-44
2021/11/12 09:44:35;;;;;;;41.40;14.15;;;;;;;6.18;77.39;101203.37;1785822;79;20951;-44
2021/11/12 09:47:02;;;;;;;27.17;12.93;;;;;;;6.25;76.82;101207.30;1816678;79;20939;-46
2021/11/12 09:49:29;;;;;;;27.98;13.98;;;;;;;6.38;75.87;101196.73;1816716;79;20888;-44
2021/11/12 09:51:55;;;;;;;27.98;14.07;;;;;;;6.46;75.86;101184.84;1816713;78;21092;-45
2021/11/12 09:54:22;;;;;;;21.95;13.38;;;;;;;6.54;75.71;101192.20;1784954;79;21022;-44
2021/11/12 09:56:49;;;;;;;22.75;14.33;;;;;;;6.69;74.51;101198.32;1816649;79;20955;-44
2021/11/12 09:59:16;;;;;;;49.77;14.75;;;;;;;6.69;74.27;101195.34;1816718;79;20960;-45
2021/11/12 10:01:42;;;;;;;37.58;14.10;;;;;;;6.63;74.37;101195.29;1816704;79;21002;-44
2021/11/12 10:04:10;;;;;;;30.23;14.10;;;;;;;6.73;74.19;101202.23;1821764;78;21080;-43
2021/11/12 10:06:41;;;;;;;21.93;13.18;;;;;;;6.87;73.71;101195.92;1831689;77;21491;-44
2021/11/12 10:09:14;;;;;;;21.10;12.30;;;;;;;6.95;73.08;101185.70;1832028;78;21501;-43
2021/11/12 10:11:55;;;;;;;20.88;13.03;;;;;;;6.99;73.39;101191.75;1831891;78;21512;-45
2021/11/12 10:17:20;;;;;;;20.85;13.65;;;;;;;7.45;71.15;101188.22;1831923;78;21142;-44
2021/11/12 10:19:52;;;;;;;19.05;12.85;;;;;;;7.53;70.11;101184.82;1831814;78;20939;-43
2021/11/12 10:22:25;;;;;;;21.30;12.93;;;;;;;7.60;70.34;101185.28;1832015;77;20986;-44
2021/11/12 10:24:51;;;;;;;27.62;12.95;;;;;;;7.71;69.54;101172.05;1830970;78;20927;-44
2021/11/12 10:27:23;;;;;;;21.85;12.75;;;;;;;7.73;68.48;101172.91;1803973;78;21009;-45
2021/11/12 10:29:53;;;;;;;23.87;12.40;;;;;;;7.74;68.89;101175.05;1831543;78;21086;-45
2021/11/12 10:32:33;;;;;;;23.95;11.53;;;;;;;7.92;68.33;101179.41;1803665;78;20998;-45
2021/11/12 10:35:09;;;;;;;19.98;10.72;;;;;;;7.95;67.95;101176.84;1831697;78;20919;-46
2021/11/12 10:37:39;;;;;;;18.60;11.57;;;;;;;8.05;68.35;101170.88;1831624;78;21532;-44
2021/11/12 10:40:15;;;;;;;18.52;11.45;;;;;;;8.21;67.66;101174.81;1831768;78;20955;-44
2021/11/12 10:42:53;;;;;;;21.60;11.88;;;;;;;8.30;67.51;101170.95;1831658;78;21078;-45
2021/11/12 10:45:26;;;;;;;26.45;12.15;;;;;;;8.32;66.76;101161.50;1831651;78;20876;-44
2021/11/12 10:48:03;;;;;;;23.32;11.90;;;;;;;8.33;66.11;101159.35;1831704;78;20989;-44
2021/11/12 10:50:34;;;;;;;21.30;12.07;;;;;;;8.19;66.58;101169.64;1831653;78;21048;-44
2021/11/12 10:53:06;;;;;;;43.73;12.85;;;;;;;8.29;67.30;101161.50;1831730;78;20970;-45
2021/11/12 10:55:34;;;;;;;27.98;11.85;;;;;;;8.56;66.83;101162.44;1832040;78;21088;-44
2021/11/12 10:58:06;;;;;;;26.97;10.53;;;;;;;8.63;65.85;101158.99;1831413;78;20962;-44
2021/11/12 11:00:36;;;;;;;15.43;9.98;;;;;;;8.71;65.27;101155.55;1831562;78;20974;-45
2021/11/12 11:03:08;;;;;;;24.70;10.38;;;;;;;8.79;64.28;101151.27;1831624;78;20966;-45
2021/11/12 11:05:45;;;;;;;15.13;10.53;;;;;;;8.88;63.93;101155.13;1819997;78;20924;-45
2021/11/12 11:08:22;;;;;;;20.92;9.85;;;;;;;8.91;62.94;101149.12;1816818;78;21111;-44
2021/11/12 11:10:59;;;;;;;35.70;10.40;;;;;;;9.01;63.00;101142.23;1816566;79;20920;-43
2021/11/12 11:13:30;;;;;;;23.22;10.75;;;;;;;9.15;62.06;101146.92;1816722;78;21022;-43
2021/11/12 11:15:59;;;;;;;21.97;10.43;;;;;;;9.09;61.29;101154.69;1816206;79;20964;-43
2021/11/12 11:18:43;;;;;;;16.77;9.50;;;;;;;8.88;61.87;101148.67;1816900;79;20931;-44
2021/11/12 11:21:24;;;;;;;33.98;10.63;;;;;;;8.81;62.41;101140.92;1816506;78;21079;-44
2021/11/12 11:23:51;;;;;;;27.30;11.00;;;;;;;8.88;62.88;101142.66;1811513;78;21002;-44
2021/11/12 11:26:25;;;;;;;29.23;10.05;;;;;;;9.04;62.88;101142.22;1811530;78;21817;-45
2021/11/12 11:28:56;;;;;;;21.02;9.63;;;;;;;9.20;61.84;101137.44;1785023;79;20888;-45
2021/11/12 11:31:23;;;;;;;41.68;11.68;;;;;;;9.23;61.02;101136.59;1816577;79;20928;-43
2021/11/12 11:33:51;;;;;;;19.23;10.03;;;;;;;9.23;61.39;101138.33;1785004;79;21191;-44
2021/11/12 11:36:20;;;;;;;18.17;10.38;;;;;;;9.28;60.90;101136.59;1816577;78;21584;-44
2021/11/12 11:38:48;;;;;;;13.43;10.28;;;;;;;9.25;61.08;101129.69;1816889;77;20912;-44
2021/11/12 11:41:17;;;;;;;18.98;9.95;;;;;;;9.24;60.18;101129.27;1816626;79;20896;-44
2021/11/12 11:43:45;;;;;;;23.80;10.48;;;;;;;9.14;60.49;101127.12;1816889;79;20944;-45
2021/11/12 11:46:25;;;;;;;20.27;10.30;;;;;;;9.12;60.82;101123.69;1816592;78;21100;-45
2021/11/12 11:48:52;;;;;;;19.35;10.80;;;;;;;9.18;60.13;101116.37;1816880;78;20857;-45
2021/11/12 11:51:35;;;;;;;20.77;11.55;;;;;;;9.14;60.22;101123.25;1816905;79;21702;-45
2021/11/12 11:54:12;;;;;;;20.20;12.23;;;;;;;9.11;60.36;101119.39;1816807;79;20986;-45
2021/11/12 11:56:45;;;;;;;28.77;13.65;;;;;;;9.15;60.26;101115.93;1816661;78;20951;-45
2021/11/12 11:59:34;;;;;;;23.60;14.30;;;;;;;9.12;60.36;101112.52;1817025;79;21737;-44
2021/11/12 12:02:04;;;;;;;26.27;16.20;;;;;;;9.06;61.15;101114.22;1816415;79;20920;-45
2021/11/12 12:04:35;;;;;;;27.98;16.25;;;;;;;9.04;61.40;101122.85;1819556;78;20994;-45
2021/11/12 12:07:12;;;;;;;30.55;17.15;;;;;;;9.00;61.40;101120.69;1828881;78;21523;-44
2021/11/12 12:10:01;;;;;;;26.68;17.57;;;;;;;8.94;62.07;101126.28;1831451;78;20923;-45
2021/11/12 12:12:35;;;;;;;33.73;17.57;;;;;;;8.93;62.19;101126.73;1831904;78;21066;-45
2021/11/12 12:15:12;;;;;;;34.65;18.42;;;;;;;8.88;62.71;101124.14;1831964;78;20947;-45
2021/11/12 12:17:47;;;;;;;34.67;18.85;;;;;;;8.88;62.89;101127.17;1831902;78;21420;-44
2021/11/12 13:25:45;;;;;;;30.88;16.85;;;;;;;8.33;65.96;101140.00;1834730;78;21492;-45
2021/11/12 13:28:32;;;;;;;23.55;16.48;;;;;;;8.29;66.15;101147.31;1834720;78;20962;-45
2021/11/12 13:31:09;;;;;;;25.82;15.75;;;;;;;8.26;66.48;101143.44;1834664;78;20931;-45
2021/11/12 13:33:46;;;;;;;28.40;16.00;;;;;;;8.20;66.94;101142.11;1806755;78;21014;-44
2021/11/12 13:36:28;;;;;;;36.08;16.10;;;;;;;8.15;67.05;101142.13;1834680;78;21815;-44
2021/11/12 13:39:10;;;;;;;22.85;15.23;;;;;;;8.12;67.35;101147.27;1835031;78;21406;-44
2021/11/12 13:41:42;;;;;;;28.87;16.35;;;;;;;8.08;67.64;101158.41;1806777;78;20990;-44
2021/11/12 13:44:14;;;;;;;30.95;16.27;;;;;;;7.98;68.12;101147.23;1834942;78;20974;-44
2021/11/12 13:46:56;;;;;;;29.35;17.15;;;;;;;7.90;68.61;101156.63;1807176;78;21515;-46
2021/11/12 13:49:40;;;;;;;31.40;17.00;;;;;;;7.83;68.94;101158.77;1834933;78;21002;-44
2021/11/12 13:52:14;;;;;;;30.15;16.50;;;;;;;7.76;69.42;101156.17;1834558;78;20931;-46
2021/11/12 13:54:51;;;;;;;34.15;17.37;;;;;;;7.68;69.74;101158.27;1834202;78;21500;-43
2021/11/12 13:57:20;;;;;;;32.60;18.52;;;;;;;7.56;70.15;101157.78;1833661;78;21484;-44
2021/11/12 14:00:01;;;;;;;34.88;19.05;;;;;;;7.43;70.64;101161.56;1806675;78;20927;-43
2021/11/12 14:02:51;;;;;;;30.80;18.57;;;;;;;7.38;71.11;101160.67;1834791;78;21114;-44
2021/11/12 14:05:18;;;;;;;35.90;19.02;;;;;;;7.31;71.46;101165.36;1806284;78;20938;-44
2021/11/12 14:07:45;;;;;;;35.25;19.77;;;;;;;7.24;72.12;101175.20;1816645;79;20912;-44
2021/11/12 14:10:15;;;;;;;31.73;19.65;;;;;;;7.17;72.29;101176.86;1816598;79;20967;-45
2021/11/12 14:12:57;;;;;;;36.30;21.93;;;;;;;7.08;72.45;101178.94;1816568;78;20948;-44
2021/11/12 14:15:35;;;;;;;40.08;22.80;;;;;;;6.97;72.79;101172.85;1811970;78;20983;-44
2021/11/12 14:26:51;;;;;;;47.00;25.77;;;;;;;6.60;75.23;101185.81;1816671;79;20987;-45
2021/11/12 14:29:55;;;;;;;47.43;26.30;;;;;;;6.56;75.78;101186.64;1816883;78;21130;-44
2021/11/12 14:45:44;;;;;;;42.53;26.68;;;;;;;6.16;78.13;101215.77;1816566;79;20990;-44
2021/11/12 14:48:36;;;;;;;50.30;27.13;;;;;;;6.12;78.29;101206.30;1789119;79;20908;-44
2021/11/12 14:51:07;;;;;;;49.45;26.07;;;;;;;6.03;78.59;101213.06;1816629;78;21002;-44
2021/11/12 14:53:39;;;;;;;59.88;27.07;;;;;;;6.00;79.21;101226.25;1816753;78;20986;-44
2021/11/12 14:56:14;;;;;;;47.10;27.55;;;;;;;5.93;79.27;101225.30;1816845;78;21132;-44
2021/11/12 14:58:48;;;;;;;49.83;27.48;;;;;;;5.82;79.49;101234.59;1816839;78;20963;-44
2021/11/12 15:01:18;;;;;;;;;;;;;;;5.74;79.87;101231.50;1819291;78;20896;-44
2021/11/12 15:03:45;;;;;;;56.80;26.48;;;;;;;5.68;80.32;101235.24;1816890;79;20450;-44
2021/11/12 15:06:15;;;;;;;63.90;28.05;;;;;;;5.64;81.03;101230.06;1824177;78;20990;-42
2021/11/12 15:08:48;;;;;;;68.37;29.35;;;;;;;5.55;81.51;101239.77;1831640;78;21130;-43
2021/11/12 15:11:10;;;;;;;73.28;28.35;;;;;;;5.48;81.71;101237.96;1829568;78;20935;-43
2021/11/12 15:13:40;;;;;;;59.67;28.77;;;;;;;5.44;82.31;101243.46;1831697;78;21258;-43
2021/11/12 15:16:19;;;;;;;66.90;28.67;;;;;;;5.40;82.52;101247.67;1803696;78;20958;-43
2021/11/12 15:18:42;;;;;;;72.70;29.70;;;;;;;5.32;82.73;101245.02;1802659;78;20915;-43
2021/11/12 15:21:16;;;;;;;59.83;30.25;;;;;;;5.26;83.07;101244.89;1831721;78;21917;-43
2021/11/12 15:26:27;;;;;;;53.80;28.80;;;;;;;5.22;84.17;101258.95;1803923;78;21029;-44
2021/11/12 15:28:54;;;;;;;59.25;30.10;;;;;;;5.22;84.64;101261.52;1830425;78;21484;-43
2021/11/12 15:31:25;;;;;;;65.57;31.45;;;;;;;5.23;84.84;101257.68;1831421;78;20943;-44
2021/11/12 15:33:58;;;;;;;70.90;33.42;;;;;;;5.26;85.21;101265.42;1831510;78;21809;-43
2021/11/12 15:36:20;;;;;;;61.10;32.80;;;;;;;5.28;85.23;101253.48;1830985;78;20875;-44
2021/11/12 15:38:54;;;;;;;60.15;32.65;;;;;;;5.34;85.46;101262.98;1831739;78;20949;-44
2021/11/12 15:44:00;;;;;;;91.02;51.48;;;;;;;5.51;85.81;101254.70;1831945;78;20946;-43
2021/11/12 15:46:28;;;;;;;78.40;46.50;;;;;;;5.55;85.92;101252.17;1831774;78;21130;-44
2021/11/12 15:48:55;;;;;;;59.58;31.68;;;;;;;5.60;86.12;101255.70;1831711;78;20978;-43
2021/11/12 15:51:30;;;;;;;48.92;27.37;;;;;;;5.67;86.26;101265.62;1831861;78;20900;-44
2021/11/12 16:14:56;;;;;;;46.75;25.57;;;;;;;6.07;86.45;101283.78;1831678;78;21045;-44
2021/11/12 16:20:54;;;;;;;39.83;25.08;;;;;;;6.15;86.36;101288.59;1831712;78;20998;-44
2021/11/12 16:27:44;;;;;;;41.08;26.15;;;;;;;6.18;86.01;101302.77;1805519;78;20962;-45
2021/11/12 16:30:10;;;;;;;43.00;25.88;;;;;;;6.22;86.06;101303.28;1804151;78;20907;-43
2021/11/12 16:35:06;;;;;;;49.65;28.10;;;;;;;6.30;85.90;101301.66;1831857;78;20962;-44
2021/11/12 16:37:33;;;;;;;49.93;27.85;;;;;;;6.32;85.78;101303.83;1831824;78;21084;-43
2021/11/12 16:50:32;;;;;;;49.67;26.33;;;;;;;6.43;85.44;101313.38;1734926;82;21061;-44
2021/11/12 16:53:06;;;;;;;54.18;28.55;;;;;;;6.44;85.32;101317.67;1801364;78;20951;-44
2021/11/12 17:01:19;;;;;;;74.60;29.10;;;;;;;6.45;85.11;101311.72;1832091;78;21532;-44
2021/11/12 17:03:27;;;;;;;76.87;29.10;;;;;;;6.45;85.04;101314.28;1827605;78;21199;-44
2021/11/12 17:05:54;;;;;;;70.78;27.98;;;;;;;6.44;85.07;101313.41;1802518;78;20966;-44
2021/11/12 17:11:11;;;;;;;63.40;30.05;;;;;;;6.44;85.12;101317.67;1816928;79;21010;-45
2021/11/12 17:13:46;;;;;;;48.20;29.12;;;;;;;6.43;85.16;101327.52;1816828;78;21007;-45
2021/11/12 17:16:34;;;;;;;55.08;31.27;;;;;;;6.43;85.20;101330.09;1816496;79;21971;-44
2021/11/12 17:19:14;;;;;;;65.95;31.37;;;;;;;6.44;85.16;101330.53;1816642;78;20963;-44
2021/11/12 17:46:26;;;;;;;57.50;29.82;;;;;;;6.42;85.12;101337.37;1816545;77;20924;-43
2021/11/12 17:51:47;;;;;;;;;;;;;;;6.43;84.99;101332.26;1819308;79;20928;-45
2021/11/12 18:02:21;;;;;;;52.05;28.23;;;;;;;6.44;84.94;101327.96;1816785;79;20924;-43
2021/11/12 18:10:14;;;;;;;52.95;27.22;;;;;;;6.50;84.63;101335.78;1795611;78;21191;-44
2021/11/12 21:48:50;;;;;;;29.18;17.50;;;;;;;4.69;89.97;101560.28;1735393;82;21390;-44
2021/11/12 21:51:23;;;;;;;30.17;19.65;;;;;;;4.68;89.89;101558.98;1735252;81;20984;-43
2021/11/12 21:53:44;;;;;;;28.47;18.40;;;;;;;4.67;89.63;101558.09;1735346;82;20972;-43
2021/11/12 21:56:10;;;;;;;25.30;17.10;;;;;;;4.65;88.74;101565.30;1735354;82;20937;-43
2021/11/12 21:58:37;;;;;;;25.05;14.90;;;;;;;4.66;86.84;101566.63;1735386;82;20988;-44
2021/11/12 22:01:04;;;;;;;25.15;15.63;;;;;;;4.68;84.24;101573.09;1735481;81;21061;-44
2021/11/12 22:03:32;;;;;;;21.95;14.87;;;;;;;4.72;83.53;101562.06;1735237;82;21058;-45